createdAt,value
2022-09-14T00:01:43.175Z,86.00
2022-09-14T00:04:51.933Z,86.00
2022-09-14T00:07:54.336Z,85.90
2022-09-14T00:10:56.392Z,86.50
2022-09-14T00:13:59.329Z,86.30
2022-09-14T00:17:06.708Z,86.10
2022-09-14T00:20:09.442Z,85.80
2022-09-14T00:23:11.327Z,85.50
2022-09-14T00:26:17.220Z,86.30
2022-09-14T00:29:20.275Z,86.10
2022-09-14T00:32:22.060Z,86.70
2022-09-14T00:35:24.750Z,86.50
2022-09-14T00:38:26.632Z,86.80
2022-09-14T00:41:37.989Z,86.70
2022-09-14T00:44:39.770Z,86.50
2022-09-14T00:47:42.325Z,85.80
2022-09-14T00:50:44.772Z,85.30
2022-09-14T00:53:47.573Z,86.40
2022-09-14T00:56:50.237Z,85.70
2022-09-14T00:59:53.723Z,86.50
2022-09-14T01:02:55.810Z,86.10
2022-09-14T01:06:16.117Z,86.00
2022-09-14T01:09:33.447Z,86.20
2022-09-14T01:12:36.642Z,86.00
2022-09-14T01:15:47.455Z,86.00
2022-09-14T01:19:04.976Z,86.00
2022-09-14T01:22:15.794Z,86.20
2022-09-14T01:25:37.582Z,86.40
2022-09-14T01:28:52.044Z,85.80
2022-09-14T01:32:06.076Z,85.50
2022-09-14T01:35:16.144Z,86.10
2022-09-14T01:38:29.219Z,87.10
2022-09-14T01:41:32.354Z,87.00
2022-09-14T01:44:37.360Z,86.70
2022-09-14T01:47:50.091Z,86.90
2022-09-14T01:50:55.904Z,87.70
2022-09-14T01:54:09.494Z,88.10
2022-09-14T01:57:11.291Z,87.80
2022-09-14T02:00:17.560Z,87.60
2022-09-14T02:03:30.490Z,87.70
2022-09-14T02:06:43.386Z,88.00
2022-09-14T02:09:50.755Z,88.70
2022-09-14T02:12:53.790Z,88.80
2022-09-14T02:15:56.187Z,89.40
2022-09-14T02:18:58.227Z,89.40
2022-09-14T02:22:00.371Z,89.40
2022-09-14T02:25:03.754Z,89.80
2022-09-14T02:28:05.753Z,89.60
2022-09-14T02:31:25.795Z,89.20
2022-09-14T02:34:57.651Z,89.70
2022-09-14T02:38:25.784Z,88.40
2022-09-14T02:41:51.327Z,89.00
2022-09-14T02:45:10.991Z,88.70
2022-09-14T02:48:15.588Z,88.80
2022-09-14T02:51:46.310Z,88.80
2022-09-14T02:54:57.880Z,88.80
2022-09-14T02:58:11.505Z,89.10
2022-09-14T03:01:16.523Z,89.30
2022-09-14T03:04:18.491Z,89.60
2022-09-14T03:07:20.723Z,88.80
2022-09-14T03:10:22.550Z,88.80
2022-09-14T03:13:24.487Z,88.50
2022-09-14T03:16:29.136Z,88.80
2022-09-14T03:19:31.068Z,88.70
2022-09-14T03:22:33.388Z,88.80
2022-09-14T03:25:53.291Z,89.00
2022-09-14T03:28:58.012Z,89.80
2022-09-14T03:31:59.936Z,89.20
2022-09-14T03:35:01.954Z,89.40
2022-09-14T03:38:06.411Z,89.60
2022-09-14T03:41:09.727Z,89.00
2022-09-14T03:44:12.510Z,90.10
2022-09-14T03:47:15.051Z,90.50
2022-09-14T03:50:20.246Z,91.20
2022-09-14T03:53:22.239Z,90.10
2022-09-14T03:56:24.148Z,89.90
2022-09-14T03:59:26.010Z,90.30
2022-09-14T04:02:29.356Z,90.40
2022-09-14T04:05:31.269Z,90.20
2022-09-14T04:08:36.789Z,90.10
2022-09-14T04:11:38.622Z,90.10
2022-09-14T04:14:43.694Z,89.80
2022-09-14T04:17:45.748Z,90.10
2022-09-14T04:21:08.039Z,89.90
2022-09-14T04:24:15.648Z,90.10
2022-09-14T04:27:18.357Z,90.00
2022-09-14T04:30:22.075Z,90.00
2022-09-14T04:33:24.277Z,90.40
2022-09-14T04:36:28.745Z,90.20
2022-09-14T04:39:30.818Z,89.70
2022-09-14T04:42:32.727Z,89.60
2022-09-14T04:45:34.628Z,90.60
2022-09-14T04:48:36.954Z,89.70
2022-09-14T04:51:42.898Z,89.80
2022-09-14T04:54:44.859Z,90.00
2022-09-14T04:57:46.683Z,89.80
2022-09-14T05:00:48.613Z,89.40
2022-09-14T05:03:51.528Z,90.20
2022-09-14T05:06:53.608Z,89.70
2022-09-14T05:09:55.504Z,89.70
2022-09-14T05:12:57.490Z,90.10
2022-09-14T05:16:30.249Z,89.80
2022-09-14T05:19:32.173Z,90.00
2022-09-14T05:22:34.064Z,89.90
2022-09-14T05:25:35.907Z,90.30
2022-09-14T05:28:38.282Z,89.80
2022-09-14T05:31:41.408Z,90.20
2022-09-14T05:34:43.333Z,90.20
2022-09-14T05:37:45.573Z,90.40
2022-09-14T05:40:47.698Z,90.20
2022-09-14T05:43:50.041Z,89.90
2022-09-14T05:46:52.219Z,89.80
2022-09-14T05:49:54.006Z,89.70
2022-09-14T05:52:56.233Z,90.00
2022-09-14T05:56:06.322Z,90.10
2022-09-14T05:59:08.181Z,89.70
2022-09-14T06:02:14.408Z,90.40
2022-09-14T06:05:18.851Z,89.70
2022-09-14T06:08:21.301Z,90.10
2022-09-14T06:11:26.314Z,89.80
2022-09-14T06:14:28.558Z,89.90
2022-09-14T06:17:31.952Z,89.80
2022-09-14T06:20:37.099Z,90.00
2022-09-14T06:23:39.020Z,89.60
2022-09-14T06:26:41.394Z,89.20
2022-09-14T06:29:44.821Z,88.80
2022-09-14T06:32:46.881Z,89.40
2022-09-14T06:42:46.448Z,89.20
2022-09-14T06:46:06.468Z,89.40
2022-09-14T06:49:11.965Z,89.30
2022-09-14T06:52:16.643Z,88.90
2022-09-14T06:55:20.178Z,88.90
2022-09-14T06:58:22.026Z,88.30
2022-09-14T07:01:24.240Z,88.40
2022-09-14T07:04:26.554Z,88.50
2022-09-14T07:07:28.596Z,89.00
2022-09-14T07:10:30.483Z,88.10
2022-09-14T07:13:32.578Z,88.30
2022-09-14T07:16:35.620Z,87.50
2022-09-14T07:19:37.457Z,87.70
2022-09-14T07:22:39.432Z,88.20
2022-09-14T07:25:41.660Z,88.20
2022-09-14T07:28:45.536Z,87.70
2022-09-14T07:31:50.206Z,86.40
2022-09-14T07:34:52.244Z,86.40
2022-09-14T07:37:55.007Z,87.20
2022-09-14T07:41:00.735Z,86.50
2022-09-14T07:44:08.365Z,84.20
2022-09-14T07:47:10.743Z,84.20
2022-09-14T07:50:12.970Z,80.10
2022-09-14T07:53:15.306Z,80.90
2022-09-14T07:56:17.450Z,81.70
2022-09-14T07:59:36.927Z,78.50
2022-09-14T08:02:39.490Z,77.00
2022-09-14T08:05:41.462Z,74.40
2022-09-14T08:08:45.460Z,74.20
2022-09-14T08:11:47.685Z,76.60
2022-09-14T08:14:51.535Z,77.80
2022-09-14T08:17:53.581Z,79.10
2022-09-14T08:20:55.713Z,79.50
2022-09-14T08:23:58.807Z,79.60
2022-09-14T08:27:06.819Z,78.30
2022-09-14T08:30:09.223Z,76.60
2022-09-14T08:33:13.225Z,76.70
2022-09-14T08:36:17.798Z,77.90
2022-09-14T08:39:19.709Z,78.20
2022-09-14T08:42:23.025Z,77.40
2022-09-14T08:45:28.347Z,74.40
2022-09-14T08:48:43.631Z,76.90
2022-09-14T08:51:49.786Z,77.60
2022-09-14T08:55:00.112Z,78.00
2022-09-14T08:58:26.788Z,76.50
2022-09-14T09:01:56.947Z,73.20
2022-09-14T09:05:13.596Z,69.00
2022-09-14T09:08:22.837Z,67.70
2022-09-14T09:11:31.777Z,69.10
2022-09-14T09:14:43.623Z,66.10
2022-09-14T09:17:50.182Z,69.40
2022-09-14T09:20:58.626Z,68.10
2022-09-14T09:24:37.552Z,67.40
2022-09-14T09:27:40.109Z,70.50
2022-09-14T09:30:43.445Z,73.00
2022-09-14T09:33:50.010Z,72.20
2022-09-14T09:36:56.954Z,74.00
2022-09-14T09:40:00.666Z,71.10
2022-09-14T09:43:21.178Z,69.60
2022-09-14T09:46:33.533Z,69.00
2022-09-14T09:49:38.638Z,66.10
2022-09-14T09:52:58.005Z,67.40
2022-09-14T09:56:05.580Z,66.40
2022-09-14T09:59:22.744Z,67.10
2022-09-14T10:02:34.527Z,67.40
2022-09-14T10:05:37.217Z,67.20
2022-09-14T10:08:47.251Z,64.60
2022-09-14T10:12:05.999Z,63.20
2022-09-14T10:15:11.752Z,62.70
2022-09-14T10:18:20.710Z,61.50
2022-09-14T10:21:24.650Z,61.80
2022-09-14T10:24:28.560Z,60.20
2022-09-14T10:27:37.592Z,61.10
2022-09-14T10:30:45.930Z,60.70
2022-09-14T10:33:52.091Z,60.50
2022-09-14T10:37:08.198Z,60.70
2022-09-14T10:40:15.962Z,60.60
2022-09-14T10:43:32.354Z,59.90
2022-09-14T10:46:47.426Z,59.60
2022-09-14T10:50:00.528Z,60.60
2022-09-14T11:03:56.900Z,60.40
2022-09-14T11:07:20.179Z,60.30
2022-09-14T11:10:25.028Z,58.90
2022-09-14T11:13:39.457Z,59.40
2022-09-14T11:17:02.079Z,60.70
2022-09-14T11:20:10.165Z,62.60
2022-09-14T11:23:30.916Z,61.80
2022-09-14T11:26:58.449Z,63.00
2022-09-14T11:30:06.021Z,63.50
2022-09-14T11:33:35.841Z,65.30
2022-09-14T11:36:44.114Z,66.40
2022-09-14T11:40:01.172Z,67.50
2022-09-14T11:43:11.589Z,65.70
2022-09-14T11:46:19.203Z,67.30
2022-09-14T11:49:39.748Z,67.00
2022-09-14T11:52:42.942Z,67.40
2022-09-14T11:55:48.579Z,68.60
2022-09-14T11:58:50.862Z,69.40
2022-09-14T12:01:53.101Z,69.50
2022-09-14T12:05:07.129Z,69.90
2022-09-14T12:08:35.858Z,71.20
2022-09-14T12:11:38.422Z,71.70
2022-09-14T12:14:41.097Z,72.90
2022-09-14T12:17:43.324Z,73.10
2022-09-14T12:20:47.966Z,73.40
2022-09-14T12:23:52.099Z,74.30
2022-09-14T12:26:54.648Z,74.00
2022-09-14T12:29:56.464Z,75.90
2022-09-14T12:32:58.277Z,76.20
2022-09-14T12:36:05.383Z,77.10
2022-09-14T12:39:23.598Z,77.70
2022-09-14T12:42:29.340Z,78.00
2022-09-14T12:45:51.202Z,77.10
2022-09-14T12:49:15.121Z,82.00
2022-09-14T12:52:35.580Z,82.80
2022-09-14T12:55:56.844Z,83.80
2022-09-14T12:59:26.228Z,84.60
2022-09-14T13:02:49.475Z,83.10
2022-09-14T13:05:51.676Z,84.70
2022-09-14T13:08:57.891Z,83.90
2022-09-14T13:12:06.123Z,84.90
2022-09-14T13:15:20.841Z,84.80
2022-09-14T13:18:22.915Z,85.60
2022-09-14T13:21:25.142Z,85.80
2022-09-14T13:24:46.091Z,85.50
2022-09-14T13:27:52.543Z,85.40
2022-09-14T13:30:57.355Z,85.70
2022-09-14T13:34:01.775Z,86.00
2022-09-14T13:37:05.267Z,86.20
2022-09-14T13:40:13.615Z,86.50
2022-09-14T13:43:17.683Z,86.60
2022-09-14T13:46:20.774Z,87.20
2022-09-14T13:49:23.196Z,86.80
2022-09-14T13:52:38.557Z,87.30
2022-09-14T13:55:47.562Z,87.30
2022-09-14T13:59:11.022Z,87.30
2022-09-14T14:02:13.960Z,86.90
2022-09-14T14:05:23.895Z,87.20
2022-09-14T14:08:35.924Z,86.80
2022-09-14T14:11:37.746Z,86.80
2022-09-14T14:14:39.708Z,86.40
2022-09-14T14:17:41.849Z,86.30
2022-09-14T14:20:43.785Z,86.20
2022-09-14T14:24:11.679Z,86.60
2022-09-14T14:27:35.581Z,86.70
2022-09-14T14:30:40.522Z,87.50
2022-09-14T14:33:48.330Z,86.70
2022-09-14T14:36:50.620Z,86.60
2022-09-14T14:39:52.524Z,87.20
2022-09-14T14:42:57.352Z,86.70
2022-09-14T14:46:01.232Z,86.20
2022-09-14T14:49:03.230Z,86.20
2022-09-14T14:52:05.052Z,85.90
2022-09-14T14:55:07.388Z,85.90
2022-09-14T14:58:16.346Z,85.50
2022-09-14T15:01:18.219Z,85.80
2022-09-14T15:07:27.383Z,86.20
2022-09-14T15:10:29.644Z,86.00
2022-09-14T15:13:31.646Z,86.80
2022-09-14T15:16:33.517Z,86.80
2022-09-14T15:19:35.641Z,86.20
2022-09-14T15:22:38.028Z,86.50
2022-09-14T15:25:40.118Z,86.30
2022-09-14T15:28:42.237Z,85.30
2022-09-14T15:31:44.597Z,85.90
2022-09-14T15:34:46.737Z,85.10
2022-09-14T15:37:52.037Z,86.50
2022-09-14T15:40:54.072Z,85.20
2022-09-14T15:43:55.960Z,85.00
2022-09-14T15:46:58.156Z,85.10
2022-09-14T15:50:00.291Z,84.70
2022-09-14T15:53:02.905Z,85.00
2022-09-14T15:56:13.256Z,85.10
2022-09-14T15:59:15.294Z,85.40
2022-09-14T16:02:17.448Z,83.60
2022-09-14T16:05:19.790Z,84.90
2022-09-14T16:08:21.771Z,83.70
2022-09-14T16:11:24.395Z,83.90
2022-09-14T16:14:26.263Z,83.30
2022-09-14T16:17:28.136Z,84.00
2022-09-14T16:20:30.124Z,83.80
2022-09-14T16:23:33.685Z,83.10
2022-09-14T16:26:37.127Z,84.20
2022-09-14T16:29:39.405Z,83.10
2022-09-14T16:32:41.354Z,83.50
2022-09-14T16:35:43.314Z,83.80
2022-09-14T16:38:48.172Z,82.10
2022-09-14T16:41:51.034Z,83.20
2022-09-14T16:44:53.043Z,83.80
2022-09-14T16:47:55.113Z,83.30
2022-09-14T16:50:58.466Z,83.80
2022-09-14T16:54:01.279Z,83.70
2022-09-14T16:57:03.567Z,82.80
2022-09-14T17:00:06.249Z,83.30
2022-09-14T17:03:08.233Z,83.50
2022-09-14T17:06:12.506Z,82.30
2022-09-14T17:09:17.608Z,83.90
2022-09-14T17:12:19.782Z,83.60
2022-09-14T17:15:21.909Z,84.00
2022-09-14T17:18:24.121Z,83.00
2022-09-14T17:21:29.606Z,82.80
2022-09-14T17:24:31.897Z,84.00
2022-09-14T17:27:34.680Z,83.50
2022-09-14T17:30:36.635Z,84.30
2022-09-14T17:33:39.009Z,83.00
2022-09-14T17:36:41.225Z,84.20
2022-09-14T17:39:43.379Z,84.30
2022-09-14T17:42:46.869Z,84.40
2022-09-14T17:45:57.046Z,83.40
2022-09-14T17:49:01.311Z,84.30
2022-09-14T17:52:03.487Z,84.50
2022-09-14T17:55:06.784Z,84.80
2022-09-14T17:58:09.998Z,84.10
2022-09-14T18:01:20.935Z,84.10
2022-09-14T18:04:23.019Z,84.40
2022-09-14T18:07:25.049Z,85.10
2022-09-14T18:10:26.840Z,84.50
2022-09-14T18:13:28.841Z,84.50
2022-09-14T18:16:32.218Z,85.60
2022-09-14T18:19:34.152Z,86.10
2022-09-14T18:22:39.200Z,85.50
2022-09-14T18:25:41.482Z,86.00
2022-09-14T18:28:44.305Z,84.80
2022-09-14T18:31:46.617Z,85.00
2022-09-14T18:34:49.172Z,85.20
2022-09-14T18:37:52.015Z,86.50
2022-09-14T18:40:54.181Z,86.40
2022-09-14T18:43:56.264Z,86.50
2022-09-14T18:46:58.198Z,86.90
2022-09-14T18:50:00.240Z,87.10
2022-09-14T18:53:02.174Z,87.20
2022-09-14T18:56:05.470Z,86.90
2022-09-14T18:59:12.570Z,87.20
2022-09-14T19:02:14.542Z,87.90
2022-09-14T19:05:16.700Z,87.70
2022-09-14T19:08:18.643Z,87.80
2022-09-14T19:11:23.466Z,86.80
2022-09-14T19:14:26.728Z,87.20
2022-09-14T19:17:28.810Z,87.80
2022-09-14T19:20:55.087Z,87.40
2022-09-14T19:23:58.325Z,87.40
2022-09-14T19:27:00.583Z,88.20
2022-09-14T19:30:02.654Z,88.30
2022-09-14T19:33:04.785Z,88.40
2022-09-14T19:36:12.516Z,88.40
2022-09-14T19:39:14.993Z,89.00
2022-09-14T19:42:17.279Z,88.20
2022-09-14T19:45:19.659Z,88.10
2022-09-14T19:48:21.691Z,87.90
2022-09-14T19:51:25.363Z,87.80
2022-09-14T19:54:27.582Z,87.40
2022-09-14T19:57:29.753Z,87.40
2022-09-14T20:00:33.515Z,87.90
2022-09-14T20:03:35.913Z,87.10
2022-09-14T20:06:42.322Z,87.40
2022-09-14T20:09:44.496Z,87.60
2022-09-14T20:12:46.394Z,87.90
2022-09-14T20:15:48.293Z,88.00
2022-09-14T20:18:51.741Z,87.80
2022-09-14T20:21:54.102Z,87.80
2022-09-14T20:24:55.946Z,87.70
2022-09-14T20:27:57.976Z,87.40
2022-09-14T20:31:01.332Z,87.50
2022-09-14T20:34:03.979Z,86.60
2022-09-14T20:37:06.481Z,86.30
2022-09-14T20:40:09.530Z,87.10
2022-09-14T20:43:11.584Z,86.50
2022-09-14T20:46:14.515Z,87.00
2022-09-14T20:49:19.821Z,87.30
2022-09-14T20:52:21.795Z,87.80
2022-09-14T20:55:23.693Z,88.10
2022-09-14T20:58:25.813Z,87.00
2022-09-14T21:01:31.813Z,87.00
2022-09-14T21:04:35.289Z,87.70
2022-09-14T21:07:37.294Z,88.20
2022-09-14T21:10:41.261Z,88.10
2022-09-14T21:13:44.310Z,88.00
2022-09-14T21:16:49.256Z,88.20
2022-09-14T21:19:51.180Z,87.50
2022-09-14T21:22:53.168Z,87.80
2022-09-14T21:25:56.544Z,88.30
2022-09-14T21:29:00.485Z,88.20
2022-09-14T21:32:06.841Z,88.60
2022-09-14T21:35:10.799Z,88.20
2022-09-14T21:38:12.667Z,88.30
2022-09-14T21:41:14.497Z,89.00
2022-09-14T21:44:16.511Z,88.90
2022-09-14T21:47:18.291Z,89.30
2022-09-14T21:50:20.647Z,89.60
2022-09-14T21:53:22.623Z,89.60
2022-09-14T21:56:26.342Z,89.70
2022-09-14T21:59:28.181Z,89.90
2022-09-14T22:02:30.246Z,89.90
2022-09-14T22:05:32.117Z,89.90
2022-09-14T22:08:35.328Z,90.10
2022-09-14T22:11:38.187Z,90.20
2022-09-14T22:14:40.800Z,89.70
2022-09-14T22:17:42.671Z,89.80
2022-09-14T22:20:44.819Z,89.70
2022-09-14T22:23:55.132Z,90.00
2022-09-14T22:26:56.978Z,89.30
2022-09-14T22:29:58.795Z,89.70
2022-09-14T22:33:00.677Z,89.70
2022-09-14T22:36:04.091Z,89.60
2022-09-14T22:39:06.671Z,88.70
2022-09-14T22:42:08.914Z,88.30
2022-09-14T22:45:11.279Z,88.50
2022-09-14T22:48:13.150Z,88.00
2022-09-14T22:51:18.385Z,88.00
2022-09-14T22:54:20.233Z,87.60
2022-09-14T22:57:22.232Z,88.00
2022-09-14T23:00:23.962Z,87.70
2022-09-14T23:03:25.855Z,88.50
2022-09-14T23:06:38.783Z,87.40
2022-09-14T23:09:41.279Z,87.30
2022-09-14T23:12:43.127Z,87.70
2022-09-14T23:15:45.215Z,87.40
2022-09-14T23:18:59.635Z,87.70
2022-09-14T23:22:01.601Z,87.90
2022-09-14T23:25:04.608Z,87.90
2022-09-14T23:28:07.673Z,87.90
2022-09-14T23:31:09.754Z,87.80
2022-09-14T23:34:11.845Z,88.10
2022-09-14T23:37:14.351Z,88.80
2022-09-14T23:40:16.382Z,88.90
2022-09-14T23:43:19.511Z,89.30
2022-09-14T23:46:21.917Z,89.30
2022-09-14T23:49:23.836Z,88.60
2022-09-14T23:52:25.715Z,88.40
2022-09-14T23:55:27.840Z,88.80
2022-09-14T23:58:30.026Z,89.20
